Time;durP1;ratioP1;P1;durP2;ratioP2;P2;SDS_P1;SDS_P2;PMS_P1;PMS_P2;Temp;Humidity;BMP_temperature;BMP_pressure;BME280_temperature;BME280_humidity;BME280_pressure;Samples;Min_cycle;Max_cycle;Signal;HPM_P1;HPM_P2
2023/10/28 00:01:03;;;;;;;1.10;1.10;;;12.30;99.90;;;;;;5025712;28;20146;-87
2023/10/28 00:03:29;;;;;;;1.00;1.00;;;12.10;99.90;;;;;;5027290;28;20494;-86
2023/10/28 00:05:55;;;;;;;1.00;1.00;;;12.80;99.90;;;;;;5026387;28;20045;-86
2023/10/28 00:08:21;;;;;;;1.00;1.00;;;12.70;99.90;;;;;;5023773;28;20042;-86
2023/10/28 00:10:51;;;;;;;1.10;1.10;;;12.10;99.90;;;;;;5019708;28;20045;-86
2023/10/28 00:13:17;;;;;;;1.10;1.10;;;12.00;99.90;;;;;;5039804;28;20092;-86
2023/10/28 00:15:42;;;;;;;1.00;1.00;;;12.00;99.90;;;;;;5029585;28;20080;-87
2023/10/28 00:18:08;;;;;;;1.00;1.00;;;12.30;99.90;;;;;;5028168;28;20046;-86
2023/10/28 00:20:35;;;;;;;1.10;1.10;;;12.50;99.90;;;;;;5057793;28;20037;-85
2023/10/28 00:23:03;;;;;;;1.10;1.10;;;11.70;99.90;;;;;;5028212;28;20463;-86
2023/10/28 00:25:31;;;;;;;1.10;1.10;;;11.90;99.90;;;;;;5013975;28;20040;-88
2023/10/28 00:27:57;;;;;;;1.00;1.00;;;11.80;99.90;;;;;;5043204;28;20056;-88
2023/10/28 00:30:24;;;;;;;1.10;1.10;;;12.00;99.90;;;;;;5025103;28;20037;-86
2023/10/28 00:32:53;;;;;;;1.10;1.10;;;11.90;99.90;;;;;;5021682;28;20597;-87
2023/10/28 00:35:22;;;;;;;1.08;1.08;;;12.10;99.90;;;;;;5060599;28;20119;-87
2023/10/28 00:37:49;;;;;;;1.02;1.02;;;12.20;99.90;;;;;;5010652;28;20044;-86
2023/10/28 00:40:15;;;;;;;1.10;1.10;;;11.80;99.90;;;;;;5004408;28;20050;-87
2023/10/28 00:42:41;;;;;;;1.10;1.10;;;12.50;99.90;;;;;;5007055;28;20105;-86
2023/10/28 00:45:11;;;;;;;1.05;1.05;;;11.90;99.90;;;;;;5018170;28;20127;-86
2023/10/28 00:47:45;;;;;;;1.10;1.10;;;11.70;99.90;;;;;;5048961;28;20045;-87
2023/10/28 00:50:14;;;;;;;1.10;1.10;;;12.30;99.90;;;;;;5025990;28;20049;-86
2023/10/28 00:52:48;;;;;;;1.05;1.05;;;12.20;99.90;;;;;;5020690;28;20893;-86
2023/10/28 00:55:15;;;;;;;1.05;1.05;;;12.30;99.90;;;;;;5026318;28;20037;-85
2023/10/28 00:57:43;;;;;;;1.00;1.00;;;12.30;99.90;;;;;;5041964;28;20045;-87
2023/10/28 01:00:10;;;;;;;1.20;1.20;;;12.20;99.90;;;;;;5019644;28;20051;-86
2023/10/28 01:02:39;;;;;;;1.20;1.20;;;12.10;99.90;;;;;;5014981;28;20052;-86
2023/10/28 01:05:06;;;;;;;1.20;1.20;;;11.80;99.90;;;;;;5053720;28;20042;-87
2023/10/28 01:07:33;;;;;;;1.17;1.17;;;12.00;99.90;;;;;;5009666;28;20053;-87
2023/10/28 01:09:59;;;;;;;1.00;1.00;;;11.90;99.90;;;;;;5043361;28;20045;-86
2023/10/28 01:12:26;;;;;;;1.05;1.05;;;11.60;99.90;;;;;;5051421;28;20041;-86
2023/10/28 01:14:53;;;;;;;1.02;1.02;;;11.70;99.90;;;;;;5009838;28;20037;-86
2023/10/28 01:17:21;;;;;;;1.02;1.02;;;12.10;99.90;;;;;;5012365;28;20063;-87
2023/10/28 01:19:47;;;;;;;1.00;1.00;;;11.90;99.90;;;;;;5017444;28;20084;-87
2023/10/28 01:22:13;;;;;;;1.13;1.13;;;12.00;99.90;;;;;;5008151;28;20076;-86
2023/10/28 01:24:39;;;;;;;1.10;1.10;;;11.50;99.90;;;;;;5014877;28;20045;-87
2023/10/28 01:27:05;;;;;;;1.08;1.08;;;11.40;99.90;;;;;;5030172;28;20107;-87
2023/10/28 01:29:33;;;;;;;1.05;1.05;;;11.40;99.90;;;;;;5024869;28;20132;-86
2023/10/28 01:31:59;;;;;;;1.10;1.10;;;11.50;99.90;;;;;;5012154;28;20106;-86
2023/10/28 01:34:26;;;;;;;1.13;1.13;;;11.50;99.90;;;;;;5032246;28;20037;-87
2023/10/28 01:36:54;;;;;;;1.15;1.15;;;11.20;99.90;;;;;;5029099;28;20604;-87
2023/10/28 01:39:20;;;;;;;1.10;1.10;;;11.80;99.90;;;;;;5014508;28;20033;-87
2023/10/28 01:41:46;;;;;;;1.08;1.08;;;11.70;99.90;;;;;;5027701;28;20049;-87
2023/10/28 01:44:11;;;;;;;1.20;1.20;;;11.70;99.90;;;;;;5030318;28;20049;-87
2023/10/28 01:46:37;;;;;;;1.20;1.20;;;11.60;99.90;;;;;;5045420;28;20520;-87
2023/10/28 01:49:04;;;;;;;1.20;1.20;;;11.70;99.90;;;;;;5009175;28;20506;-88
2023/10/28 01:51:30;;;;;;;1.20;1.20;;;11.70;99.90;;;;;;5040078;28;20136;-87
2023/10/28 01:53:55;;;;;;;1.15;1.15;;;11.00;99.90;;;;;;5044600;28;20120;-86
2023/10/28 01:56:21;;;;;;;1.17;1.17;;;11.10;99.90;;;;;;5027575;28;20132;-87
2023/10/28 01:58:47;;;;;;;1.20;1.20;;;11.50;99.90;;;;;;5012368;28;20746;-86
2023/10/28 02:01:12;;;;;;;1.25;1.25;;;11.10;99.90;;;;;;5036940;28;20813;-87
2023/10/28 02:03:38;;;;;;;1.30;1.30;;;11.30;99.90;;;;;;5012747;28;20049;-86
2023/10/28 02:06:06;;;;;;;1.13;1.13;;;11.60;99.90;;;;;;5029791;28;20049;-86
2023/10/28 02:08:31;;;;;;;1.20;1.20;;;10.90;99.90;;;;;;5006375;28;20106;-86
2023/10/28 02:10:57;;;;;;;1.25;1.25;;;11.40;99.90;;;;;;5030034;28;20067;-87
2023/10/28 02:13:23;;;;;;;1.25;1.25;;;10.70;99.90;;;;;;5055390;28;20050;-87
2023/10/28 02:15:49;;;;;;;1.30;1.30;;;10.50;99.90;;;;;;5035816;28;20057;-86
2023/10/28 02:18:22;;;;;;;1.20;1.20;;;10.70;99.90;;;;;;5024889;28;20139;-87
2023/10/28 02:20:48;;;;;;;1.50;1.40;;;10.50;99.90;;;;;;5031512;28;20059;-87
2023/10/28 02:23:14;;;;;;;1.63;1.52;;;11.10;99.90;;;;;;5028051;28;20048;-87
2023/10/28 02:25:41;;;;;;;1.45;1.38;;;11.20;99.90;;;;;;5027760;28;20052;-85
2023/10/28 02:28:08;;;;;;;1.52;1.42;;;10.60;99.90;;;;;;5029885;28;20064;-86
2023/10/28 02:30:39;;;;;;;1.67;1.58;;;10.80;99.90;;;;;;5036859;28;20054;-86
2023/10/28 02:33:06;;;;;;;1.73;1.63;;;10.70;99.90;;;;;;5058927;28;20052;-86
2023/10/28 02:35:33;;;;;;;1.55;1.45;;;11.30;99.90;;;;;;5035579;28;20075;-87
2023/10/28 02:37:59;;;;;;;1.67;1.58;;;11.20;99.90;;;;;;5049228;28;20041;-86
2023/10/28 02:40:24;;;;;;;1.55;1.45;;;11.30;99.90;;;;;;5018863;28;20056;-87
2023/10/28 02:42:50;;;;;;;1.65;1.55;;;10.60;99.90;;;;;;5032936;28;20137;-85
2023/10/28 02:45:16;;;;;;;1.63;1.52;;;11.30;99.90;;;;;;5016388;28;21046;-86
2023/10/28 02:47:42;;;;;;;1.90;1.80;;;11.00;99.90;;;;;;5049781;28;20040;-87
2023/10/28 02:50:08;;;;;;;1.70;1.60;;;11.10;99.90;;;;;;5036186;28;20509;-87
2023/10/28 02:52:34;;;;;;;1.83;1.73;;;11.50;99.90;;;;;;5021377;28;20047;-87
2023/10/28 02:55:00;;;;;;;1.92;1.83;;;11.60;99.90;;;;;;5036527;28;20045;-87
2023/10/28 02:57:26;;;;;;;2.05;1.95;;;11.00;99.90;;;;;;5013433;28;20506;-88
2023/10/28 02:59:53;;;;;;;1.85;1.75;;;11.70;99.90;;;;;;5038365;28;20398;-87
2023/10/28 03:02:18;;;;;;;1.83;1.73;;;11.10;99.90;;;;;;5015252;28;20053;-88
2023/10/28 03:04:44;;;;;;;1.85;1.75;;;11.30;99.90;;;;;;5036814;28;20044;-89
2023/10/28 03:07:10;;;;;;;1.80;1.70;;;11.70;99.90;;;;;;5041721;28;20106;-90
2023/10/28 03:09:35;;;;;;;1.73;1.63;;;11.10;99.90;;;;;;5014357;28;20037;-87
2023/10/28 03:12:02;;;;;;;2.20;2.10;;;11.10;99.90;;;;;;5069480;28;20094;-90
2023/10/28 03:14:28;;;;;;;1.95;1.85;;;11.80;99.90;;;;;;5022210;28;20053;-88
2023/10/28 03:16:54;;;;;;;1.80;1.70;;;11.90;99.90;;;;;;5019735;28;20048;-89
2023/10/28 03:19:20;;;;;;;1.83;1.73;;;12.10;99.90;;;;;;5033906;28;20128;-88
2023/10/28 03:21:45;;;;;;;1.88;1.77;;;11.30;99.90;;;;;;5036591;28;20049;-87
2023/10/28 03:24:12;;;;;;;1.83;1.73;;;11.60;99.90;;;;;;5036894;28;20576;-87
2023/10/28 03:26:38;;;;;;;2.03;1.92;;;12.10;99.90;;;;;;5020870;28;20049;-87
2023/10/28 03:29:04;;;;;;;1.90;1.80;;;11.40;99.90;;;;;;5031808;28;20076;-86
2023/10/28 03:31:30;;;;;;;1.80;1.70;;;12.10;99.90;;;;;;5037773;28;20512;-88
2023/10/28 03:33:55;;;;;;;1.83;1.73;;;11.80;99.90;;;;;;5032096;28;20049;-88
2023/10/28 03:36:21;;;;;;;1.63;1.52;;;12.40;99.90;;;;;;5030075;28;20044;-88
2023/10/28 03:38:47;;;;;;;1.67;1.58;;;11.80;99.90;;;;;;5030872;28;20033;-88
2023/10/28 03:41:13;;;;;;;1.65;1.55;;;12.40;99.90;;;;;;5049377;28;20495;-86
2023/10/28 03:43:41;;;;;;;1.52;1.42;;;11.80;99.90;;;;;;5064810;28;20060;-88
2023/10/28 03:46:07;;;;;;;1.63;1.52;;;11.70;99.90;;;;;;5016505;28;20135;-88
2023/10/28 03:48:34;;;;;;;1.65;1.55;;;12.50;99.90;;;;;;5035161;28;20128;-89
2023/10/28 03:51:04;;;;;;;1.77;1.67;;;12.10;99.90;;;;;;5050066;28;20131;-90
2023/10/28 03:53:30;;;;;;;1.63;1.52;;;11.60;99.90;;;;;;5034195;28;20040;-89
2023/10/28 03:55:56;;;;;;;1.73;1.63;;;12.10;99.90;;;;;;5036149;28;20059;-88
2023/10/28 03:58:22;;;;;;;1.65;1.55;;;11.60;99.90;;;;;;5017727;28;20119;-88
2023/10/28 04:00:53;;;;;;;1.50;1.40;;;12.40;99.90;;;;;;5036800;28;20091;-90
2023/10/28 04:03:23;;;;;;;1.45;1.38;;;11.70;99.90;;;;;;5046132;28;20049;-88
2023/10/28 04:05:49;;;;;;;1.60;1.50;;;12.20;99.90;;;;;;5035426;28;20036;-90
2023/10/28 04:08:15;;;;;;;1.48;1.38;;;12.20;99.90;;;;;;5019753;28;20072;-92
2023/10/28 04:10:41;;;;;;;1.75;1.65;;;12.30;99.90;;;;;;5018711;28;20068;-89
2023/10/28 04:13:07;;;;;;;1.55;1.45;;;12.20;99.90;;;;;;5034527;28;20098;-91
2023/10/28 04:15:35;;;;;;;1.60;1.50;;;12.50;99.90;;;;;;5024082;28;20060;-89
2023/10/28 04:18:01;;;;;;;1.48;1.40;;;12.10;99.90;;;;;;5030907;28;20041;-90
2023/10/28 04:20:27;;;;;;;1.55;1.45;;;11.70;99.90;;;;;;5038330;28;20102;-88
2023/10/28 04:22:53;;;;;;;1.60;1.50;;;11.70;99.90;;;;;;5036830;28;20049;-89
2023/10/28 04:25:19;;;;;;;1.48;1.40;;;12.60;99.90;;;;;;5021571;28;20060;-88
2023/10/28 04:27:45;;;;;;;1.60;1.50;;;12.50;99.90;;;;;;5032669;28;20101;-88
2023/10/28 04:30:11;;;;;;;1.55;1.45;;;11.80;99.90;;;;;;5038220;28;20045;-90
2023/10/28 04:32:38;;;;;;;1.65;1.55;;;12.00;99.90;;;;;;5068656;28;20127;-91
2023/10/28 04:35:05;;;;;;;1.63;1.52;;;11.80;99.90;;;;;;5014962;28;20062;-90
2023/10/28 04:37:32;;;;;;;1.52;1.42;;;12.70;99.90;;;;;;5024075;28;20049;-90
2023/10/28 04:39:57;;;;;;;1.52;1.42;;;12.50;99.90;;;;;;5053232;28;20065;-88
2023/10/28 04:42:23;;;;;;;1.42;1.38;;;11.80;99.90;;;;;;5019499;28;20080;-92
2023/10/28 04:44:49;;;;;;;1.55;1.45;;;12.60;99.90;;;;;;5025347;28;20098;-90
2023/10/28 04:47:15;;;;;;;1.63;1.52;;;12.00;99.90;;;;;;5017432;28;20072;-90
2023/10/28 04:49:41;;;;;;;1.67;1.58;;;12.30;99.90;;;;;;5052626;28;20069;-90
2023/10/28 04:52:10;;;;;;;1.55;1.45;;;11.80;99.90;;;;;;5022465;28;20052;-92
2023/10/28 04:54:38;;;;;;;1.58;1.48;;;11.90;99.90;;;;;;5054501;28;20045;-90
2023/10/28 04:57:04;;;;;;;1.33;1.33;;;11.80;99.90;;;;;;5026473;28;20072;-90
2023/10/28 04:59:30;;;;;;;1.25;1.25;;;12.50;99.90;;;;;;5038056;28;20086;-92
2023/10/28 05:01:56;;;;;;;1.42;1.38;;;12.20;99.90;;;;;;5022528;28;20036;-91
2023/10/28 05:04:25;;;;;;;1.52;1.42;;;12.40;99.90;;;;;;5026653;28;20620;-91
2023/10/28 05:06:54;;;;;;;1.55;1.45;;;12.10;99.90;;;;;;5029357;28;20040;-91
2023/10/28 05:09:20;;;;;;;1.40;1.38;;;11.70;99.90;;;;;;5045932;28;20041;-90
2023/10/28 05:11:56;;;;;;;1.35;1.33;;;11.70;99.90;;;;;;5019555;28;20057;-92
2023/10/28 05:14:23;;;;;;;1.55;1.45;;;11.60;99.90;;;;;;5028062;28;20089;-94
2023/10/28 05:16:50;;;;;;;1.45;1.40;;;11.90;99.90;;;;;;5019057;28;20045;-89
2023/10/28 05:19:18;;;;;;;1.50;1.42;;;12.20;99.90;;;;;;5017063;28;20040;-88
2023/10/28 05:21:44;;;;;;;1.55;1.45;;;11.90;99.90;;;;;;5014351;28;20040;-88
2023/10/28 05:24:10;;;;;;;1.65;1.55;;;11.80;99.90;;;;;;5026267;28;20052;-88
2023/10/28 05:26:36;;;;;;;1.55;1.45;;;12.00;99.90;;;;;;5030290;28;20190;-91
2023/10/28 05:29:02;;;;;;;1.63;1.52;;;11.90;99.90;;;;;;5015508;28;20048;-89
2023/10/28 05:31:28;;;;;;;1.52;1.42;;;12.10;99.90;;;;;;5032628;28;20044;-87
2023/10/28 05:33:53;;;;;;;1.55;1.45;;;11.90;99.90;;;;;;5015736;28;20037;-91
2023/10/28 05:36:19;;;;;;;1.65;1.55;;;12.30;99.90;;;;;;5035002;28;20076;-88
2023/10/28 05:38:45;;;;;;;1.55;1.45;;;12.30;99.90;;;;;;5048319;28;20054;-89
2023/10/28 05:41:11;;;;;;;1.55;1.45;;;12.50;99.90;;;;;;5033321;28;20174;-91
2023/10/28 05:43:38;;;;;;;1.58;1.48;;;12.50;99.90;;;;;;5018467;28;20486;-88
2023/10/28 05:46:04;;;;;;;1.63;1.52;;;12.50;99.90;;;;;;5017287;28;20036;-91
2023/10/28 05:48:30;;;;;;;1.55;1.45;;;12.40;99.90;;;;;;5016094;28;20127;-87
2023/10/28 05:50:56;;;;;;;1.65;1.55;;;11.90;99.90;;;;;;5019587;28;20041;-92
2023/10/28 05:53:23;;;;;;;1.35;1.33;;;12.30;99.90;;;;;;5047262;28;20048;-89
2023/10/28 05:55:50;;;;;;;1.75;1.65;;;11.90;99.90;;;;;;5035571;28;20053;-89
2023/10/28 05:58:16;;;;;;;1.38;1.35;;;12.40;99.90;;;;;;5018073;28;20506;-92
2023/10/28 06:00:42;;;;;;;1.50;1.42;;;12.00;99.90;;;;;;5021585;28;20489;-92
2023/10/28 06:03:08;;;;;;;1.55;1.45;;;11.80;99.90;;;;;;5036570;28;20045;-93
2023/10/28 06:05:37;;;;;;;1.55;1.45;;;12.30;99.90;;;;;;5019294;28;20053;-90
2023/10/28 06:08:03;;;;;;;1.35;1.33;;;12.00;99.90;;;;;;5018477;28;20064;-90
2023/10/28 06:10:29;;;;;;;1.42;1.38;;;11.90;99.90;;;;;;5017575;28;20520;-92
2023/10/28 06:12:54;;;;;;;1.52;1.42;;;12.20;99.90;;;;;;5040233;28;20044;-89
2023/10/28 06:15:20;;;;;;;1.55;1.45;;;12.00;99.90;;;;;;5054825;28;20123;-89
2023/10/28 06:17:46;;;;;;;1.33;1.30;;;11.70;99.90;;;;;;5037361;28;20036;-90
2023/10/28 06:20:12;;;;;;;1.60;1.50;;;11.60;99.90;;;;;;5036299;28;20075;-89
2023/10/28 06:22:38;;;;;;;1.55;1.45;;;12.00;99.90;;;;;;5040212;28;20080;-90
2023/10/28 06:25:04;;;;;;;1.60;1.50;;;11.70;99.90;;;;;;5013474;28;20041;-90
2023/10/28 06:27:33;;;;;;;1.52;1.45;;;12.20;99.90;;;;;;5027816;28;20044;-93
2023/10/28 06:30:00;;;;;;;1.65;1.55;;;11.90;99.90;;;;;;5018683;28;20091;-90
2023/10/28 06:32:28;;;;;;;1.65;1.55;;;12.10;99.90;;;;;;5021834;28;20040;-90
2023/10/28 06:34:57;;;;;;;1.73;1.63;;;12.10;99.90;;;;;;5050868;28;20036;-91
2023/10/28 06:37:23;;;;;;;1.88;1.77;;;11.80;99.90;;;;;;5020775;28;20499;-90
2023/10/28 06:39:49;;;;;;;1.85;1.75;;;11.70;99.90;;;;;;5018305;28;20044;-86
2023/10/28 06:42:15;;;;;;;1.70;1.60;;;11.80;99.90;;;;;;5020100;28;20049;-96
2023/10/28 06:44:43;;;;;;;1.65;1.55;;;11.60;99.90;;;;;;5023837;28;20040;-92
2023/10/28 06:47:09;;;;;;;1.75;1.65;;;11.60;99.90;;;;;;5020670;28;20044;-93
2023/10/28 06:49:35;;;;;;;1.80;1.70;;;11.70;99.90;;;;;;5019386;28;20049;-94
2023/10/28 06:52:01;;;;;;;1.95;1.85;;;11.90;99.90;;;;;;5021216;28;20048;-93
2023/10/28 06:54:27;;;;;;;1.83;1.73;;;12.20;99.90;;;;;;5036587;28;20048;-91
2023/10/28 06:57:02;;;;;;;1.77;1.67;;;12.20;99.90;;;;;;5042594;28;20859;-95
2023/10/28 06:59:36;;;;;;;1.92;1.83;;;11.80;99.90;;;;;;5017127;28;20065;-94
2023/10/28 07:02:02;;;;;;;1.92;1.83;;;12.00;99.90;;;;;;5027150;28;20056;-93
2023/10/28 07:04:28;;;;;;;2.05;1.95;;;11.90;99.90;;;;;;5028171;28;20037;-95
2023/10/28 07:06:54;;;;;;;2.10;2.00;;;11.80;99.90;;;;;;5018735;28;20042;-91
2023/10/28 07:09:20;;;;;;;2.10;2.00;;;12.20;99.90;;;;;;5037688;28;20634;-90
2023/10/28 07:11:46;;;;;;;2.00;1.90;;;12.30;99.90;;;;;;5025381;28;20056;-90
2023/10/28 07:14:12;;;;;;;1.98;1.88;;;12.40;99.90;;;;;;5021374;28;20044;-91
2023/10/28 07:16:39;;;;;;;2.08;1.98;;;12.20;99.90;;;;;;5019060;28;20033;-91
2023/10/28 07:19:04;;;;;;;1.88;1.77;;;12.30;99.90;;;;;;5023779;28;20128;-92
2023/10/28 07:21:30;;;;;;;2.05;1.95;;;12.30;99.90;;;;;;5019323;28;20461;-90
2023/10/28 07:23:56;;;;;;;2.15;2.05;;;12.20;99.90;;;;;;5023486;28;20116;-90
2023/10/28 07:26:22;;;;;;;2.05;1.95;;;12.50;99.90;;;;;;5023362;28;20068;-88
2023/10/28 07:28:48;;;;;;;2.15;2.05;;;12.50;99.90;;;;;;5016507;28;20076;-93
2023/10/28 07:31:17;;;;;;;2.17;2.08;;;12.50;99.90;;;;;;5019201;28;20044;-95
2023/10/28 07:33:43;;;;;;;1.92;1.83;;;12.30;99.90;;;;;;5014868;28;20064;-91
2023/10/28 07:36:09;;;;;;;2.13;2.03;;;12.20;99.90;;;;;;5024329;28;20052;-92
2023/10/28 07:38:35;;;;;;;1.75;1.65;;;12.20;99.90;;;;;;5018017;28;20137;-94
2023/10/28 07:41:01;;;;;;;1.98;1.88;;;12.60;99.90;;;;;;5043762;28;20076;-92
2023/10/28 07:43:27;;;;;;;1.83;1.73;;;12.30;99.90;;;;;;5023903;28;20134;-88
2023/10/28 07:45:52;;;;;;;1.85;1.75;;;12.30;99.90;;;;;;5055474;28;20757;-89
2023/10/28 07:48:21;;;;;;;1.83;1.73;;;12.70;99.90;;;;;;5039128;28;20100;-96
2023/10/28 07:50:53;;;;;;;1.70;1.60;;;12.70;99.90;;;;;;5023333;28;20049;-94
2023/10/28 07:53:18;;;;;;;1.70;1.60;;;12.40;99.90;;;;;;5023165;28;20067;-93
2023/10/28 07:59:48;;;;;;;1.83;1.73;;;12.60;99.90;;;;;;4963466;28;20046;-96
2023/10/28 08:02:15;;;;;;;1.63;1.52;;;12.70;99.90;;;;;;4960847;28;20044;-93
2023/10/28 08:04:41;;;;;;;1.60;1.50;;;12.60;99.90;;;;;;5043551;28;20041;-91
2023/10/28 08:07:10;;;;;;;1.65;1.55;;;12.90;99.90;;;;;;5020805;28;20133;-96
2023/10/28 08:09:36;;;;;;;1.73;1.63;;;13.00;99.90;;;;;;5041951;28;20065;-91
2023/10/28 08:12:04;;;;;;;1.63;1.52;;;12.90;99.90;;;;;;5034876;28;20092;-90
2023/10/28 08:14:32;;;;;;;1.52;1.42;;;12.90;99.90;;;;;;5026013;28;20053;-88
2023/10/28 08:16:58;;;;;;;1.48;1.40;;;12.70;99.90;;;;;;5023628;28;20103;-93
2023/10/28 08:19:29;;;;;;;1.63;1.52;;;12.80;99.90;;;;;;5025244;28;20501;-95
2023/10/28 08:22:15;;;;;;;1.65;1.55;;;12.80;99.90;;;;;;5027606;28;20067;-93
2023/10/28 08:24:41;;;;;;;1.52;1.45;;;12.80;99.90;;;;;;5052795;28;20053;-90
2023/10/28 08:27:11;;;;;;;1.70;1.60;;;13.00;99.90;;;;;;5041031;28;20103;-94
2023/10/28 08:29:37;;;;;;;1.55;1.45;;;13.00;99.90;;;;;;5066138;28;20072;-91
2023/10/28 08:32:03;;;;;;;1.75;1.65;;;13.30;99.90;;;;;;5026281;28;20047;-89
2023/10/28 08:34:29;;;;;;;1.73;1.63;;;13.30;99.90;;;;;;5019716;28;20760;-92
2023/10/28 08:36:55;;;;;;;1.52;1.42;;;13.30;99.90;;;;;;5037909;28;20095;-93
2023/10/28 08:39:28;;;;;;;1.30;1.30;;;13.40;99.90;;;;;;5049124;28;20041;-96
2023/10/28 08:41:54;;;;;;;1.30;1.30;;;13.30;99.90;;;;;;5008755;28;20426;-94
2023/10/28 08:44:27;;;;;;;1.35;1.33;;;13.60;99.90;;;;;;5045860;28;20045;-89
2023/10/28 08:47:06;;;;;;;1.30;1.30;;;13.60;99.90;;;;;;5045568;28;20041;-93
2023/10/28 08:49:38;;;;;;;1.17;1.17;;;13.50;99.90;;;;;;5023591;28;20051;-91
2023/10/28 08:52:06;;;;;;;1.23;1.23;;;13.60;99.90;;;;;;5050659;28;20040;-91
2023/10/28 08:54:34;;;;;;;1.13;1.13;;;13.70;99.90;;;;;;5041418;28;20076;-93
2023/10/28 08:57:00;;;;;;;1.10;1.10;;;13.60;99.90;;;;;;5024615;28;20090;-94
2023/10/28 08:59:29;;;;;;;1.08;1.08;;;13.60;99.90;;;;;;5030138;28;20033;-96
2023/10/28 09:01:57;;;;;;;1.05;1.05;;;13.60;99.90;;;;;;5067957;28;20152;-93
2023/10/28 09:04:23;;;;;;;1.10;1.10;;;13.60;99.90;;;;;;5022547;28;20056;-92
2023/10/28 09:06:52;;;;;;;1.10;1.10;;;13.70;99.90;;;;;;5038760;28;20620;-86
2023/10/28 09:09:21;;;;;;;1.15;1.15;;;13.60;99.90;;;;;;5034250;28;20044;-93
2023/10/28 09:11:51;;;;;;;1.13;1.13;;;13.70;99.90;;;;;;5048744;28;20057;-96
2023/10/28 09:14:17;;;;;;;1.08;1.08;;;14.00;99.90;;;;;;5021333;28;20041;-94
2023/10/28 09:16:43;;;;;;;1.05;1.05;;;13.90;99.90;;;;;;5040916;28;20466;-93
2023/10/28 09:19:21;;;;;;;1.10;1.10;;;13.80;99.90;;;;;;5026021;28;20764;-95
2023/10/28 09:21:48;;;;;;;1.15;1.15;;;13.90;99.90;;;;;;5056593;28;20381;-93
2023/10/28 09:24:15;;;;;;;1.13;1.13;;;14.00;99.90;;;;;;5039250;28;20044;-92
2023/10/28 09:26:41;;;;;;;1.10;1.10;;;14.00;99.90;;;;;;5036579;28;20058;-92
2023/10/28 09:29:07;;;;;;;1.05;1.05;;;14.00;99.90;;;;;;5045837;28;20040;-93
2023/10/28 09:31:34;;;;;;;1.02;1.02;;;14.00;99.90;;;;;;5025146;28;20037;-96
2023/10/28 09:37:20;;;;;;;1.10;1.10;;;14.10;99.90;;;;;;5076421;28;20725;-94
2023/10/28 09:39:48;;;;;;;1.17;1.17;;;14.00;99.90;;;;;;5020689;28;20041;-93
2023/10/28 09:42:21;;;;;;;1.00;1.00;;;14.00;99.90;;;;;;5030079;28;20205;-95
2023/10/28 09:45:00;;;;;;;1.10;1.10;;;14.00;99.90;;;;;;5050618;28;20406;-96
2023/10/28 09:47:58;;;;;;;1.10;1.10;;;14.00;99.90;;;;;;5025422;28;21860;-92
2023/10/28 09:50:30;;;;;;;1.00;1.00;;;14.00;99.90;;;;;;5023667;28;20413;-95
2023/10/28 09:52:57;;;;;;;1.00;1.00;;;14.10;99.90;;;;;;5025613;28;20040;-90
2023/10/28 09:55:33;;;;;;;1.00;1.00;;;14.00;99.90;;;;;;5042071;28;20045;-92
2023/10/28 09:58:11;;;;;;;1.17;1.17;;;14.00;99.90;;;;;;5021334;28;20057;-95
2023/10/28 10:00:46;;;;;;;1.17;1.17;;;14.10;99.90;;;;;;5018959;28;20166;-96
2023/10/28 10:03:53;;;;;;;1.02;1.02;;;14.20;99.90;;;;;;5048388;28;20048;-88
2023/10/28 10:07:01;;;;;;;1.00;1.00;;;14.10;99.90;;;;;;5002642;28;20052;-95
2023/10/28 10:10:02;;;;;;;1.00;1.00;;;14.00;99.90;;;;;;4968177;28;20054;-95
2023/10/28 10:12:50;;;;;;;1.13;1.13;;;14.10;99.90;;;;;;5031095;28;20139;-93
2023/10/28 10:15:29;;;;;;;1.15;1.15;;;14.10;99.90;;;;;;5006691;28;20156;-93
2023/10/28 10:18:21;;;;;;;1.10;1.10;;;14.30;99.90;;;;;;5046971;28;20037;-93
2023/10/28 10:20:59;;;;;;;1.10;1.10;;;14.40;99.90;;;;;;5012939;28;20087;-94
2023/10/28 10:23:44;;;;;;;1.20;1.20;;;14.40;99.90;;;;;;5023400;28;20057;-91
2023/10/28 10:26:32;;;;;;;1.00;1.00;;;14.40;99.90;;;;;;5019926;28;20045;-95
2023/10/28 10:29:08;;;;;;;1.00;1.00;;;14.40;99.90;;;;;;5022900;28;20042;-96
2023/10/28 10:31:36;;;;;;;1.10;1.10;;;14.50;99.90;;;;;;5009481;28;20048;-96
2023/10/28 10:34:40;;;;;;;1.00;1.00;;;14.50;99.90;;;;;;5022284;28;20076;-96
2023/10/28 10:37:40;;;;;;;;;;;;;;;;;;;;;
2023/10/28 10:40:21;;;;;;;1.00;1.00;;;14.50;99.90;;;;;;5057527;28;20049;-91
2023/10/28 10:42:50;;;;;;;1.00;1.00;;;14.50;99.90;;;;;;5072186;28;20119;-95
2023/10/28 10:45:38;;;;;;;1.00;1.00;;;14.50;99.90;;;;;;5020993;28;20044;-92
2023/10/28 10:48:08;;;;;;;1.10;1.10;;;14.50;99.90;;;;;;5015718;28;20561;-96
2023/10/28 10:50:38;;;;;;;1.00;1.00;;;14.50;99.90;;;;;;5030265;28;20040;-90
2023/10/28 10:53:16;;;;;;;1.00;1.00;;;14.60;99.90;;;;;;5069174;28;20803;-96
2023/10/28 10:55:49;;;;;;;0.93;0.93;;;14.50;99.90;;;;;;5045948;28;20037;-94
2023/10/28 10:58:53;;;;;;;1.00;1.00;;;14.50;99.90;;;;;;5032294;28;20537;-96
2023/10/28 11:01:18;;;;;;;1.10;1.10;;;14.50;99.90;;;;;;5011700;28;20053;-96
2023/10/28 11:03:44;;;;;;;1.10;1.10;;;14.60;99.90;;;;;;5025585;28;20052;-96
2023/10/28 11:06:12;;;;;;;1.00;1.00;;;14.60;99.90;;;;;;5024020;28;20064;-93
2023/10/28 11:08:41;;;;;;;1.00;1.00;;;14.70;99.90;;;;;;5041458;28;20048;-90
2023/10/28 11:11:20;;;;;;;1.10;1.10;;;14.80;99.90;;;;;;5022728;28;20071;-93
2023/10/28 11:14:02;;;;;;;1.00;1.00;;;14.90;99.90;;;;;;5025301;28;20048;-94
2023/10/28 11:16:32;;;;;;;1.08;1.08;;;14.80;99.90;;;;;;5024702;28;20036;-94
2023/10/28 11:19:02;;;;;;;1.10;1.10;;;14.90;99.90;;;;;;5022942;28;20047;-92
2023/10/28 11:21:32;;;;;;;1.00;1.00;;;14.80;99.90;;;;;;5041662;28;20040;-94
2023/10/28 11:23:59;;;;;;;0.90;0.90;;;14.70;99.90;;;;;;5021080;28;20136;-89
2023/10/28 11:26:27;;;;;;;1.02;1.02;;;14.70;99.90;;;;;;5038449;28;20055;-93
2023/10/28 11:29:02;;;;;;;0.90;0.90;;;14.80;99.90;;;;;;5030393;28;20040;-88
2023/10/28 11:31:29;;;;;;;0.93;0.93;;;14.80;99.90;;;;;;5054014;28;20044;-93
2023/10/28 11:34:19;;;;;;;0.93;0.93;;;14.90;99.90;;;;;;5025207;28;20046;-94
2023/10/28 11:36:46;;;;;;;1.00;1.00;;;14.90;99.90;;;;;;4965201;28;20050;-88
2023/10/28 11:39:15;;;;;;;1.05;1.05;;;15.10;99.90;;;;;;5024208;28;20065;-89
2023/10/28 11:41:47;;;;;;;1.08;1.08;;;15.20;99.90;;;;;;5021482;28;20029;-91
2023/10/28 11:44:33;;;;;;;0.90;0.90;;;15.20;99.90;;;;;;5041279;28;20477;-92
2023/10/28 11:47:03;;;;;;;1.00;1.00;;;15.30;99.90;;;;;;5023635;28;20114;-92
2023/10/28 11:49:30;;;;;;;1.00;1.00;;;15.30;99.90;;;;;;5020956;28;20060;-90
2023/10/28 11:52:14;;;;;;;1.00;1.00;;;15.40;99.90;;;;;;5038134;28;20052;-94
2023/10/28 11:54:46;;;;;;;1.15;1.15;;;16.00;99.90;;;;;;5052020;28;20052;-91
2023/10/28 11:57:15;;;;;;;0.98;0.98;;;16.00;99.90;;;;;;5021737;28;20056;-96
2023/10/28 11:59:56;;;;;;;0.90;0.90;;;15.80;99.90;;;;;;5016338;28;20037;-96
2023/10/28 12:02:22;;;;;;;0.90;0.90;;;15.60;99.90;;;;;;5024961;28;20036;-93
2023/10/28 12:04:48;;;;;;;0.90;0.90;;;15.60;99.90;;;;;;5050295;28;20506;-92
2023/10/28 12:07:25;;;;;;;1.00;1.00;;;15.40;99.90;;;;;;5023626;28;20045;-96
2023/10/28 12:10:10;;;;;;;0.95;0.95;;;15.40;99.90;;;;;;5037156;28;20040;-96
2023/10/28 12:12:54;;;;;;;1.00;1.00;;;15.50;99.90;;;;;;5036899;28;20041;-91
2023/10/28 12:15:26;;;;;;;1.30;1.20;;;15.50;99.90;;;;;;5014314;28;20049;-96
2023/10/28 12:17:53;;;;;;;1.00;1.00;;;15.50;99.90;;;;;;5051699;28;20398;-88
2023/10/28 12:20:22;;;;;;;1.00;1.00;;;15.30;99.90;;;;;;5028825;28;20135;-95
2023/10/28 12:22:51;;;;;;;0.90;0.90;;;15.20;99.90;;;;;;5036979;28;20041;-95
2023/10/28 12:25:16;;;;;;;1.00;1.00;;;15.30;99.90;;;;;;5018041;28;20064;-90
2023/10/28 12:27:44;;;;;;;0.90;0.90;;;15.30;99.90;;;;;;5019342;28;20104;-90
2023/10/28 12:30:13;;;;;;;0.90;0.90;;;15.30;99.90;;;;;;5025274;28;20099;-93
2023/10/28 12:32:38;;;;;;;0.90;0.90;;;15.40;99.90;;;;;;5019511;28;20043;-93
2023/10/28 12:35:04;;;;;;;0.90;0.90;;;15.40;99.90;;;;;;5056268;28;20049;-93
2023/10/28 12:37:30;;;;;;;0.90;0.90;;;15.50;99.90;;;;;;5026990;28;20383;-93
2023/10/28 12:40:43;;;;;;;0.90;0.90;;;15.50;99.90;;;;;;5044451;28;20132;-96
2023/10/28 12:43:17;;;;;;;1.00;1.00;;;15.70;99.90;;;;;;5054901;28;20068;-92
2023/10/28 12:45:47;;;;;;;1.00;1.00;;;15.80;99.90;;;;;;5031339;28;20041;-91
2023/10/28 12:48:54;;;;;;;1.00;1.00;;;15.70;99.90;;;;;;5019833;28;20052;-96
2023/10/28 12:51:23;;;;;;;1.10;1.10;;;15.60;99.90;;;;;;4976677;28;20061;-90
2023/10/28 12:53:58;;;;;;;;;;;;;;;;;;;;;
2023/10/28 12:56:39;;;;;;;0.88;0.88;;;15.50;99.90;;;;;;4985955;28;20092;-86
2023/10/28 12:59:09;;;;;;;1.10;1.10;;;15.40;99.90;;;;;;5030914;28;20049;-92
2023/10/28 13:01:35;;;;;;;1.02;1.02;;;15.40;99.90;;;;;;5045499;28;20068;-93
2023/10/28 13:04:00;;;;;;;0.90;0.90;;;15.40;99.90;;;;;;5032571;28;20474;-94
2023/10/28 13:06:47;;;;;;;0.90;0.90;;;15.60;99.90;;;;;;5042780;28;20053;-96